Time;durP1;ratioP1;P1;durP2;ratioP2;P2;SDS_P1;SDS_P2;PMS_P1;PMS_P2;Temp;Humidity;BMP_temperature;BMP_pressure;BME280_temperature;BME280_humidity;BME280_pressure;Samples;Min_cycle;Max_cycle;Signal;HPM_P1;HPM_P2
2023/03/21 00:01:53;;;;;;;;;;;;;;;12.18;57.77;99642.72;5092195;28;19919;-42
2023/03/21 00:04:19;;;;;;;;;;;;;;;12.41;57.26;99642.13;5091693;28;19917;-41
2023/03/21 00:06:44;;;;;;;;;;;;;;;12.32;57.04;99648.78;5091661;28;19993;-41
2023/03/21 00:09:11;;;;;;;;;;;;;;;12.18;58.21;99632.06;5091477;28;19955;-42
2023/03/21 00:11:36;;;;;;;;;;;;;;;12.33;57.43;99627.22;5091559;28;20375;-42
2023/03/21 00:14:01;;;;;;;;;;;;;;;12.29;58.08;99619.88;5090743;28;19915;-40
2023/03/21 00:16:29;;;;;;;;;;;;;;;12.00;58.19;99618.66;5091629;28;19920;-41
2023/03/21 00:18:56;;;;;;;;;;;;;;;11.94;57.50;99625.66;5091785;28;19916;-42
2023/03/21 00:21:27;;;;;;;;;;;;;;;12.24;57.33;99622.38;5091320;28;19920;-42
2023/03/21 00:23:52;;;;;;;;;;;;;;;12.09;59.02;99615.50;5091551;28;20033;-42
2023/03/21 00:26:18;;;;;;;;;;;;;;;11.96;58.83;99625.47;5091738;28;19912;-41
2023/03/21 00:28:43;;;;;;;;;;;;;;;12.15;58.44;99610.31;5091659;28;19944;-42
2023/03/21 00:31:09;;;;;;;;;;;;;;;11.79;59.62;99614.47;5091633;28;20406;-41
2023/03/21 00:33:34;;;;;;;;;;;;;;;11.88;59.70;99607.81;5091359;28;19912;-42
2023/03/21 00:36:00;;;;;;;;;;;;;;;11.90;59.01;99600.47;5091535;28;19916;-42
2023/03/21 00:38:26;;;;;;;;;;;;;;;12.14;59.02;99593.50;5091672;28;20432;-41
2023/03/21 00:40:51;;;;;;;;;;;;;;;11.92;61.58;99593.88;5091351;28;19958;-42
2023/03/21 00:43:18;;;;;;;;;;;;;;;11.90;61.98;99590.63;5091300;28;19959;-43
2023/03/21 00:45:46;;;;;;;;;;;;;;;12.11;62.14;99596.63;5091201;28;20296;-42
2023/03/21 00:48:12;;;;;;;;;;;;;;;12.33;62.47;99591.72;5091101;28;19919;-42
2023/03/21 00:50:38;;;;;;;;;;;;;;;12.44;62.34;99588.34;5091256;28;20234;-43
2023/03/21 00:53:03;;;;;;;;;;;;;;;12.55;61.80;99586.00;5091186;28;20267;-42
2023/03/21 00:55:29;;;;;;;;;;;;;;;12.44;61.81;99583.00;5091297;28;19923;-42
2023/03/21 00:57:54;;;;;;;;;;;;;;;12.08;63.05;99583.72;5091393;28;20410;-41
2023/03/21 01:00:20;;;;;;;;;;;;;;;12.17;62.42;99577.09;5090935;28;20287;-41
2023/03/21 01:02:57;;;;;;;;;;;;;;;12.38;62.43;99575.06;5091096;28;19912;-41
2023/03/21 01:08:11;;;;;;;;;;;;;;;12.31;62.83;99575.09;5091184;28;20022;-42
2023/03/21 01:10:41;;;;;;;;;;;;;;;12.36;62.14;99561.94;5090789;28;19955;-42
2023/03/21 01:13:07;;;;;;;;;;;;;;;12.38;62.09;99557.19;5091084;28;19947;-42
2023/03/21 01:15:32;;;;;;;;;;;;;;;11.90;64.38;99555.13;5091018;28;19943;-42
2023/03/21 01:17:57;;;;;;;;;;;;;;;11.99;63.99;99559.16;5090759;28;20399;-42
2023/03/21 01:20:23;;;;;;;;;;;;;;;12.02;64.37;99560.59;5090441;28;19911;-43
2023/03/21 01:22:48;;;;;;;;;;;;;;;12.06;63.41;99554.59;5090194;28;19951;-43
2023/03/21 01:25:13;;;;;;;;;;;;;;;12.03;63.54;99554.19;5089820;28;19931;-43
2023/03/21 01:27:38;;;;;;;;;;;;;;;11.68;64.88;99523.47;5089695;28;19912;-47
2023/03/21 01:30:05;;;;;;;;;;;;;;;11.83;65.18;99557.00;5090511;28;20003;-43
2023/03/21 01:32:30;;;;;;;;;;;;;;;12.09;64.45;99553.34;5090481;28;19912;-43
2023/03/21 01:34:55;;;;;;;;;;;;;;;11.83;66.03;99547.16;5090632;28;19919;-43
2023/03/21 01:37:21;;;;;;;;;;;;;;;11.51;67.26;99555.13;5090751;28;20458;-42
2023/03/21 01:39:46;;;;;;;;;;;;;;;11.91;65.35;99540.75;5090527;28;20352;-43
2023/03/21 01:42:12;;;;;;;;;;;;;;;11.68;65.81;99541.31;5090490;28;19916;-42
2023/03/21 01:44:51;;;;;;;;;;;;;;;11.51;66.57;99531.16;5090813;28;19920;-42
2023/03/21 01:47:16;;;;;;;;;;;;;;;11.38;67.15;99519.75;5090374;28;20006;-42
2023/03/21 01:49:47;;;;;;;;;;;;;;;11.55;67.42;99526.22;5090391;28;20411;-42
2023/03/21 01:52:17;;;;;;;;;;;;;;;11.57;67.21;99532.13;5090574;28;19944;-42
2023/03/21 01:54:43;;;;;;;;;;;;;;;11.44;67.89;99525.06;5090604;28;20391;-43
2023/03/21 01:57:12;;;;;;;;;;;;;;;11.04;68.81;99522.63;5090201;28;19912;-43
2023/03/21 01:59:41;;;;;;;;;;;;;;;11.00;69.26;99525.91;5090411;28;19913;-42
2023/03/21 02:02:10;;;;;;;;;;;;;;;10.96;68.62;99520.97;5090696;28;20267;-43
2023/03/21 02:04:36;;;;;;;;;;;;;;;10.76;70.28;99514.94;5091080;28;19965;-42
2023/03/21 02:07:08;;;;;;;;;;;;;;;10.85;70.31;99513.69;5091015;28;19973;-42
2023/03/21 02:09:35;;;;;;;;;;;;;;;10.70;70.48;99513.94;5090729;28;19919;-43
2023/03/21 02:12:01;;;;;;;;;;;;;;;10.54;71.83;99515.19;5090857;28;19997;-42
2023/03/21 02:14:28;;;;;;;;;;;;;;;10.57;71.90;99522.75;5090999;28;20351;-42
2023/03/21 02:17:05;;;;;;;;;;;;;;;10.63;70.89;99507.81;5090731;28;19919;-41
2023/03/21 02:19:59;;;;;;;;;;;;;;;10.64;70.95;99479.34;5090980;28;20433;-41
2023/03/21 02:22:40;;;;;;;;;;;;;;;10.49;72.00;99507.03;5091356;28;20065;-42
2023/03/21 02:25:11;;;;;;;;;;;;;;;10.45;72.28;99511.13;5090964;28;20292;-42
2023/03/21 02:27:45;;;;;;;;;;;;;;;10.81;70.99;99504.47;5090818;28;19915;-42
2023/03/21 02:30:26;;;;;;;;;;;;;;;10.80;71.16;99502.84;5090985;28;19912;-42
2023/03/21 02:32:57;;;;;;;;;;;;;;;10.76;71.25;99509.63;5093893;28;19916;-42
2023/03/21 02:35:40;;;;;;;;;;;;;;;11.01;70.41;99515.03;5094528;28;19912;-42
2023/03/21 02:38:09;;;;;;;;;;;;;;;10.92;69.90;99513.63;5094413;28;20352;-42
2023/03/21 02:40:41;;;;;;;;;;;;;;;11.05;69.88;99515.44;5094482;28;20007;-42
2023/03/21 02:43:16;;;;;;;;;;;;;;;11.27;69.38;99524.75;5094295;28;19918;-42
2023/03/21 02:45:46;;;;;;;;;;;;;;;11.03;69.08;99531.63;5094324;28;19945;-42
2023/03/21 02:48:14;;;;;;;;;;;;;;;10.92;69.90;99529.63;5094204;28;19965;-42
2023/03/21 02:50:42;;;;;;;;;;;;;;;10.86;70.15;99525.94;5094073;28;20340;-42
2023/03/21 02:53:09;;;;;;;;;;;;;;;10.35;71.84;99529.34;5094280;28;19923;-42
2023/03/21 02:55:36;;;;;;;;;;;;;;;10.48;71.84;99539.97;5093861;28;20355;-43
2023/03/21 02:58:02;;;;;;;;;;;;;;;10.79;70.14;99530.47;5094075;28;19943;-42
2023/03/21 03:00:30;;;;;;;;;;;;;;;10.88;70.20;99542.53;5093866;28;20375;-42
2023/03/21 03:02:55;;;;;;;;;;;;;;;10.79;70.23;99530.47;5093656;28;20282;-42
2023/03/21 03:05:22;;;;;;;;;;;;;;;10.74;71.09;99528.44;5093664;28;19977;-43
2023/03/21 03:08:09;;;;;;;;;;;;;;;10.81;70.80;99531.06;5093741;28;19912;-42
2023/03/21 03:10:35;;;;;;;;;;;;;;;10.94;69.51;99539.00;5093289;28;19952;-42
2023/03/21 03:13:07;;;;;;;;;;;;;;;11.21;69.60;99535.44;5093878;28;19958;-41
2023/03/21 03:15:33;;;;;;;;;;;;;;;11.25;69.64;99540.13;5093309;28;20352;-42
2023/03/21 03:17:58;;;;;;;;;;;;;;;11.06;70.13;99541.03;5093344;28;20117;-42
2023/03/21 03:20:44;;;;;;;;;;;;;;;11.20;68.97;99542.59;5093568;28;19916;-42
2023/03/21 03:23:09;;;;;;;;;;;;;;;11.14;68.90;99549.59;5092636;28;19927;-42
2023/03/21 03:25:54;;;;;;;;;;;;;;;11.10;70.02;99551.06;5093006;28;19928;-42
2023/03/21 03:28:23;;;;;;;;;;;;;;;11.34;68.64;99552.16;5086499;28;19949;-42
2023/03/21 03:30:50;;;;;;;;;;;;;;;11.26;68.30;99544.41;5100994;28;19912;-42
2023/03/21 03:33:16;;;;;;;;;;;;;;;11.28;68.36;99546.88;5093474;28;19964;-42
2023/03/21 03:35:43;;;;;;;;;;;;;;;11.31;67.68;99549.13;5093032;28;19912;-42
2023/03/21 03:38:09;;;;;;;;;;;;;;;11.14;68.40;99552.25;5093492;28;19961;-42
2023/03/21 03:40:44;;;;;;;;;;;;;;;11.06;68.05;99546.34;5093744;28;20005;-42
2023/03/21 03:43:13;;;;;;;;;;;;;;;10.91;68.59;99544.78;5092752;28;19919;-42
2023/03/21 03:45:46;;;;;;;;;;;;;;;10.81;70.09;99541.72;5093200;28;20367;-42
2023/03/21 03:48:31;;;;;;;;;;;;;;;11.05;69.00;99534.88;5093434;28;19920;-41
2023/03/21 03:51:02;;;;;;;;;;;;;;;10.96;68.71;99526.31;5092259;28;19969;-42
2023/03/21 03:53:29;;;;;;;;;;;;;;;10.89;69.61;99527.34;5092943;28;20368;-41
2023/03/21 03:55:55;;;;;;;;;;;;;;;10.74;70.21;99524.97;5092911;28;19912;-42
2023/03/21 03:58:22;;;;;;;;;;;;;;;10.89;69.17;99527.34;5093078;28;19965;-42
2023/03/21 04:00:48;;;;;;;;;;;;;;;10.76;69.74;99529.06;5092620;28;19912;-41
2023/03/21 04:03:13;;;;;;;;;;;;;;;10.65;69.80;99531.56;5092775;28;20413;-42
2023/03/21 04:05:39;;;;;;;;;;;;;;;10.61;70.04;99533.00;5093016;28;20452;-41
2023/03/21 04:08:05;;;;;;;;;;;;;;;10.53;70.82;99534.03;5093058;28;19912;-41
2023/03/21 04:10:30;;;;;;;;;;;;;;;10.57;70.23;99527.28;5092198;28;19919;-42
2023/03/21 04:12:56;;;;;;;;;;;;;;;10.47;69.48;99529.53;5099668;28;20279;-36
2023/03/21 04:15:21;;;;;;;;;;;;;;;10.22;69.94;99537.31;5099778;28;20276;-36
2023/03/21 04:17:46;;;;;;;;;;;;;;;9.95;71.10;99538.13;5092247;28;19919;-36
2023/03/21 04:20:12;;;;;;;;;;;;;;;10.03;71.15;99544.28;5094356;28;19923;-36
2023/03/21 04:22:38;;;;;;;;;;;;;;;10.02;71.36;99534.69;5092070;28;19977;-35
2023/03/21 04:25:06;;;;;;;;;;;;;;;10.28;71.23;99547.97;5092191;28;19920;-36
2023/03/21 04:27:32;;;;;;;;;;;;;;;10.30;70.80;99545.06;5092486;28;19950;-36
2023/03/21 04:29:58;;;;;;;;;;;;;;;10.51;70.46;99547.56;5092507;28;19916;-36
2023/03/21 04:32:23;;;;;;;;;;;;;;;10.47;70.07;99550.81;5092153;28;19912;-36
2023/03/21 04:34:48;;;;;;;;;;;;;;;10.58;69.32;99552.84;5091451;28;19916;-36
2023/03/21 04:37:17;;;;;;;;;;;;;;;10.47;70.62;99554.31;5091503;28;19920;-37
2023/03/21 04:39:45;;;;;;;;;;;;;;;10.37;71.14;99553.91;5091379;28;20360;-36
2023/03/21 04:42:10;;;;;;;;;;;;;;;10.37;70.25;99552.06;5091440;28;19969;-37
2023/03/21 04:44:35;;;;;;;;;;;;;;;10.45;70.42;99556.38;5091133;28;19916;-37
2023/03/21 04:47:01;;;;;;;;;;;;;;;10.31;69.80;99552.88;5091534;28;19912;-37
2023/03/21 04:49:26;;;;;;;;;;;;;;;9.96;72.02;99549.59;5091716;28;19912;-36
2023/03/21 04:51:51;;;;;;;;;;;;;;;10.00;72.04;99556.16;5091870;28;19969;-42
2023/03/21 04:54:17;;;;;;;;;;;;;;;10.02;72.01;99559.41;5091041;28;19923;-36
2023/03/21 04:56:43;;;;;;;;;;;;;;;9.96;71.30;99560.25;5092100;28;20050;-36
2023/03/21 04:59:11;;;;;;;;;;;;;;;10.17;70.85;99565.34;5091986;28;20001;-36
2023/03/21 05:01:36;;;;;;;;;;;;;;;9.93;72.57;99564.09;5091580;28;19916;-36
2023/03/21 05:04:02;;;;;;;;;;;;;;;9.93;71.76;99569.41;5090977;28;20312;-36
2023/03/21 05:06:27;;;;;;;;;;;;;;;10.16;72.29;99578.84;5091747;28;20059;-36
2023/03/21 05:08:55;;;;;;;;;;;;;;;10.07;72.36;99574.75;5091972;28;20039;-42
2023/03/21 05:11:21;;;;;;;;;;;;;;;10.18;72.15;99572.31;5091361;28;19918;-36
2023/03/21 05:13:46;;;;;;;;;;;;;;;10.75;69.78;99575.31;5091438;28;20355;-41
2023/03/21 05:16:11;;;;;;;;;;;;;;;10.21;71.51;99572.94;5091594;28;19912;-41
2023/03/21 05:18:37;;;;;;;;;;;;;;;10.16;71.71;99577.00;5088907;28;20048;-42
2023/03/21 05:21:03;;;;;;;;;;;;;;;10.55;71.07;99574.56;5091040;28;19966;-41
2023/03/21 05:23:30;;;;;;;;;;;;;;;11.16;68.81;99570.69;5090318;28;20384;-42
2023/03/21 05:25:56;;;;;;;;;;;;;;;10.84;69.42;99569.78;5090344;28;19924;-43
2023/03/21 05:28:30;;;;;;;;;;;;;;;11.34;67.24;99570.00;5089542;28;20201;-42
2023/03/21 05:30:56;;;;;;;;;;;;;;;11.16;67.57;99544.06;5090256;28;19920;-42
2023/03/21 05:33:21;;;;;;;;;;;;;;;11.40;66.76;99566.47;5090217;28;20353;-41
2023/03/21 05:35:49;;;;;;;;;;;;;;;11.22;67.42;99556.53;5090042;28;20481;-42
2023/03/21 05:38:14;;;;;;;;;;;;;;;11.08;69.45;99555.78;5090628;28;20022;-42
2023/03/21 05:40:39;;;;;;;;;;;;;;;10.98;69.85;99562.56;5090250;28;20367;-41
2023/03/21 05:43:05;;;;;;;;;;;;;;;10.96;70.37;99570.75;5089719;28;19912;-43
2023/03/21 05:45:30;;;;;;;;;;;;;;;11.18;69.94;99565.97;5089692;28;19965;-42
2023/03/21 05:47:55;;;;;;;;;;;;;;;11.55;68.47;99567.00;5089779;28;19926;-42
2023/03/21 05:50:20;;;;;;;;;;;;;;;11.91;70.02;99567.44;5089672;28;20032;-42
2023/03/21 05:52:46;;;;;;;;;;;;;;;11.52;68.97;99569.31;5089622;28;20003;-42
2023/03/21 05:55:11;;;;;;;;;;;;;;;11.57;68.24;99564.13;5089679;28;20387;-42
2023/03/21 05:57:39;;;;;;;;;;;;;;;11.98;69.55;99565.53;5089777;28;19984;-36
2023/03/21 06:00:06;;;;;;;;;;;;;;;12.11;66.17;99568.09;5089630;28;19916;-42
2023/03/21 06:02:31;;;;;;;;;;;;;;;12.04;65.92;99572.66;5090036;28;19962;-43
2023/03/21 06:04:56;;;;;;;;;;;;;;;12.66;64.96;99572.72;5090411;28;19965;-43
2023/03/21 06:07:22;;;;;;;;;;;;;;;13.17;61.86;99567.22;5094462;28;20307;-42
2023/03/21 06:09:50;;;;;;;;;;;;;;;12.61;62.68;99564.56;5092377;28;19916;-36
2023/03/21 06:12:15;;;;;;;;;;;;;;;12.17;67.91;99568.28;5092859;28;19916;-43
2023/03/21 06:14:41;;;;;;;;;;;;;;;12.15;66.90;99570.31;5094641;28;19919;-43
2023/03/21 06:17:06;;;;;;;;;;;;;;;12.60;68.04;99570.94;5093395;28;20014;-42
2023/03/21 06:19:31;;;;;;;;;;;;;;;13.01;69.42;99566.78;5094027;28;19928;-44
2023/03/21 06:21:56;;;;;;;;;;;;;;;12.79;62.71;99573.63;5094149;28;19916;-43
2023/03/21 06:24:22;;;;;;;;;;;;;;;12.94;61.93;99570.59;5094000;28;19924;-42
2023/03/21 06:26:47;;;;;;;;;;;;;;;13.26;60.86;99568.56;5094137;28;19965;-42
2023/03/21 06:29:12;;;;;;;;;;;;;;;13.09;61.37;99573.69;5093560;28;20351;-42
2023/03/21 06:31:38;;;;;;;;;;;;;;;13.26;61.69;99573.91;5093156;28;19912;-42
2023/03/21 06:34:03;;;;;;;;;;;;;;;13.28;60.40;99571.81;5093611;28;20007;-42
2023/03/21 06:36:29;;;;;;;;;;;;;;;13.22;60.94;99576.19;5093936;28;19912;-42
2023/03/21 06:38:54;;;;;;;;;;;;;;;13.22;61.63;99578.88;5093582;28;19913;-42
2023/03/21 06:41:19;;;;;;;;;;;;;;;13.37;60.80;99583.06;5094019;28;19935;-37
2023/03/21 06:43:45;;;;;;;;;;;;;;;13.60;60.24;99583.13;5093801;28;19920;-39
2023/03/21 06:46:10;;;;;;;;;;;;;;;13.91;59.68;99583.13;5094015;28;19913;-42
2023/03/21 06:48:36;;;;;;;;;;;;;;;14.31;58.57;99577.94;5093282;28;19919;-42
2023/03/21 06:51:03;;;;;;;;;;;;;;;14.71;56.89;99576.44;5093107;28;19923;-42
2023/03/21 06:53:29;;;;;;;;;;;;;;;14.39;57.95;99580.28;5093864;28;19916;-43
2023/03/21 06:55:55;;;;;;;;;;;;;;;14.44;58.92;99579.56;5093756;28;20067;-40
2023/03/21 06:58:21;;;;;;;;;;;;;;;14.75;63.34;99580.28;5094224;28;20017;-43
2023/03/21 07:00:46;;;;;;;;;;;;;;;15.35;56.84;99579.13;5093830;28;20498;-42
2023/03/21 07:03:12;;;;;;;;;;;;;;;15.00;56.38;99588.88;5093852;28;19934;-42
2023/03/21 07:05:38;;;;;;;;;;;;;;;15.58;54.96;99594.28;5093225;28;20356;-42
2023/03/21 07:08:04;;;;;;;;;;;;;;;15.48;55.85;99588.72;5093336;28;19965;-42
2023/03/21 07:10:29;;;;;;;;;;;;;;;15.68;54.04;99589.09;5093250;28;19927;-43
2023/03/21 07:12:54;;;;;;;;;;;;;;;15.48;54.39;99567.25;5093411;28;19916;-42
2023/03/21 07:15:20;;;;;;;;;;;;;;;15.69;55.07;99587.22;5092999;28;20414;-41
2023/03/21 07:17:45;;;;;;;;;;;;;;;15.75;54.40;99589.81;5092811;28;19916;-42
2023/03/21 07:20:11;;;;;;;;;;;;;;;15.48;55.22;99591.41;5092382;28;19923;-43
2023/03/21 07:22:36;;;;;;;;;;;;;;;15.50;56.14;99586.59;5092973;28;19961;-43
2023/03/21 07:25:02;;;;;;;;;;;;;;;15.57;56.41;99585.44;5092402;28;19928;-42
2023/03/21 07:27:27;;;;;;;;;;;;;;;15.82;54.69;99592.31;5091695;28;20027;-43
2023/03/21 07:29:52;;;;;;;;;;;;;;;15.98;53.79;99583.50;5091985;28;19912;-43
2023/03/21 07:32:18;;;;;;;;;;;;;;;16.34;54.01;99580.56;5092082;28;20003;-42
2023/03/21 07:34:43;;;;;;;;;;;;;;;16.73;52.07;99576.00;5091214;28;20364;-43
2023/03/21 07:37:08;;;;;;;;;;;;;;;17.02;52.11;99573.22;5091961;28;19912;-42
2023/03/21 07:39:34;;;;;;;;;;;;;;;17.33;50.06;99573.56;5091604;28;19999;-43
2023/03/21 07:42:00;;;;;;;;;;;;;;;17.45;50.28;99584.19;5092077;28;20367;-43
2023/03/21 07:44:26;;;;;;;;;;;;;;;17.44;50.43;99578.00;5092207;28;19927;-44
2023/03/21 07:46:51;;;;;;;;;;;;;;;17.38;50.32;99571.75;5092411;28;20295;-36
2023/03/21 07:49:16;;;;;;;;;;;;;;;17.46;50.05;99564.28;5092488;28;20384;-37
2023/03/21 07:51:42;;;;;;;;;;;;;;;17.35;49.87;99564.19;5092468;28;19919;-36
2023/03/21 07:54:07;;;;;;;;;;;;;;;17.64;49.69;99565.81;5092566;28;19912;-44
2023/03/21 07:56:32;;;;;;;;;;;;;;;18.09;49.04;99560.06;5092749;28;20375;-43
2023/03/21 07:58:58;;;;;;;;;;;;;;;18.47;47.30;99563.56;5092616;28;19962;-43
2023/03/21 08:01:24;;;;;;;;;;;;;;;18.14;48.78;99557.41;5092610;28;19991;-44
2023/03/21 08:03:50;;;;;;;;;;;;;;;18.51;47.85;99553.88;5092515;28;20268;-43
2023/03/21 08:06:15;;;;;;;;;;;;;;;18.15;48.24;99556.34;5092492;28;19919;-43
2023/03/21 08:08:40;;;;;;;;;;;;;;;17.89;49.43;99546.44;5092153;28;19912;-42
2023/03/21 08:11:06;;;;;;;;;;;;;;;18.43;48.00;99549.00;5091887;28;19916;-42
2023/03/21 08:13:31;;;;;;;;;;;;;;;18.47;47.80;99552.00;5091061;28;19921;-42
2023/03/21 08:15:57;;;;;;;;;;;;;;;18.53;46.74;99549.03;5090927;28;19947;-41
2023/03/21 08:18:22;;;;;;;;;;;;;;;19.06;45.82;99546.38;5091905;28;20323;-41
2023/03/21 08:20:51;;;;;;;;;;;;;;;19.02;46.29;99544.44;5092409;28;19930;-41
2023/03/21 08:23:16;;;;;;;;;;;;;;;18.78;46.34;99558.34;5091869;28;19927;-41
2023/03/21 08:25:42;;;;;;;;;;;;;;;18.61;46.87;99558.53;5091558;28;20292;-41
2023/03/21 08:28:07;;;;;;;;;;;;;;;18.84;45.63;99554.63;5091578;28;19970;-36
2023/03/21 08:30:32;;;;;;;;;;;;;;;19.33;44.55;99548.06;5090586;28;20019;-36
2023/03/21 08:32:58;;;;;;;;;;;;;;;19.42;43.98;99551.88;5090710;28;19944;-36
2023/03/21 08:35:24;;;;;;;;;;;;;;;19.43;42.90;99558.88;5091554;28;20360;-36
2023/03/21 08:37:49;;;;;;;;;;;;;;;19.14;43.50;99556.63;5092205;28;20308;-36
2023/03/21 08:40:15;;;;;;;;;;;;;;;19.62;42.69;99548.38;5091890;28;20299;-36
2023/03/21 08:42:41;;;;;;;;;;;;;;;20.06;42.23;99549.78;5091388;28;20385;-36
2023/03/21 08:45:07;;;;;;;;;;;;;;;20.54;40.98;99544.06;5091185;28;19916;-37
2023/03/21 08:47:32;;;;;;;;;;;;;;;20.54;41.22;99544.06;5091401;28;19923;-37
2023/03/21 08:49:58;;;;;;;;;;;;;;;20.29;41.51;99538.41;5091273;28;19912;-36
2023/03/21 08:52:24;;;;;;;;;;;;;;;19.90;42.99;99544.41;5090898;28;20455;-36
2023/03/21 08:54:49;;;;;;;;;;;;;;;19.97;43.08;99541.44;5091699;28;19916;-36
2023/03/21 08:57:15;;;;;;;;;;;;;;;20.78;41.31;99545.09;5091800;28;20245;-35
2023/03/21 08:59:40;;;;;;;;;;;;;;;21.02;40.61;99539.88;5090054;28;20212;-37
2023/03/21 09:02:06;;;;;;;;;;;;;;;21.11;40.58;99541.97;5089718;28;19916;-36
2023/03/21 09:04:31;;;;;;;;;;;;;;;20.34;40.51;99536.81;5089836;28;19919;-36
2023/03/21 09:06:57;;;;;;;;;;;;;;;20.78;40.59;99536.19;5090886;28;19977;-36
2023/03/21 09:09:22;;;;;;;;;;;;;;;21.18;39.26;99527.06;5090815;28;19912;-36
2023/03/21 09:11:47;;;;;;;;;;;;;;;21.23;39.38;99531.66;5090858;28;20434;-35
2023/03/21 09:14:13;;;;;;;;;;;;;;;20.93;39.33;99521.78;5090751;28;20316;-36
2023/03/21 09:16:38;;;;;;;;;;;;;;;20.94;39.61;99521.50;5090806;28;19919;-36
2023/03/21 09:19:07;;;;;;;;;;;;;;;20.87;39.05;99526.41;5090875;28;20006;-38
2023/03/21 09:21:32;;;;;;;;;;;;;;;21.02;39.14;99530.94;5090939;28;19920;-37
2023/03/21 09:23:59;;;;;;;;;;;;;;;21.25;38.99;99521.34;5090407;28;19938;-36
2023/03/21 09:26:26;;;;;;;;;;;;;;;21.57;37.95;99520.91;5091444;28;19912;-36
2023/03/21 09:28:52;;;;;;;;;;;;;;;20.78;39.04;99517.25;5091229;28;19977;-35
2023/03/21 09:31:20;;;;;;;;;;;;;;;21.20;38.31;99522.19;5090302;28;19916;-38
2023/03/21 09:33:46;;;;;;;;;;;;;;;21.19;37.92;99514.34;5090662;28;19912;-35
2023/03/21 09:36:13;;;;;;;;;;;;;;;21.07;37.90;99511.97;5090117;28;19912;-35
2023/03/21 09:38:41;;;;;;;;;;;;;;;20.94;38.84;99510.66;5090164;28;19912;-36
2023/03/21 09:41:26;;;;;;;;;;;;;;;21.26;38.19;99512.13;5092650;28;20287;-36
2023/03/21 09:44:10;;;;;;;;;;;;;;;21.61;38.46;99502.19;5095502;28;20350;-37
2023/03/21 09:46:41;;;;;;;;;;;;;;;22.00;37.14;99510.25;5094805;28;19912;-36
2023/03/21 09:49:12;;;;;;;;;;;;;;;21.78;37.42;99508.03;5095454;28;20315;-36
2023/03/21 09:51:44;;;;;;;;;;;;;;;21.48;38.38;99506.34;5094643;28;20069;-37
2023/03/21 09:54:36;;;;;;;;;;;;;;;22.33;37.27;99501.56;5094913;28;19984;-36
2023/03/21 09:57:22;;;;;;;;;;;;;;;23.12;36.32;99495.78;5093429;28;19912;-36
2023/03/21 09:59:49;;;;;;;;;;;;;;;23.81;35.00;99496.09;5090469;28;19912;-36
2023/03/21 10:02:31;;;;;;;;;;;;;;;23.92;34.66;99494.03;5094606;28;19938;-36
2023/03/21 10:04:56;;;;;;;;;;;;;;;23.20;34.82;99490.50;5094208;28;20088;-36
2023/03/21 10:07:22;;;;;;;;;;;;;;;22.75;35.88;99486.44;5094418;28;19947;-36
2023/03/21 10:09:49;;;;;;;;;;;;;;;22.78;35.76;99481.25;5094465;28;19916;-35
2023/03/21 10:12:19;;;;;;;;;;;;;;;23.21;35.46;99497.53;5094457;28;19923;-37
2023/03/21 10:14:47;;;;;;;;;;;;;;;24.06;34.02;99489.41;5094310;28;19934;-36
2023/03/21 10:17:25;;;;;;;;;;;;;;;24.49;32.89;99477.50;5094386;28;19912;-35
2023/03/21 10:20:10;;;;;;;;;;;;;;;24.84;32.46;99475.97;5094108;28;19912;-36
2023/03/21 10:22:36;;;;;;;;;;;;;;;25.08;31.67;99475.72;5094174;28;20000;-36
2023/03/21 10:25:01;;;;;;;;;;;;;;;24.68;32.41;99474.69;5093546;28;20027;-36
2023/03/21 10:27:27;;;;;;;;;;;;;;;23.84;33.52;99475.69;5093911;28;19912;-36
2023/03/21 10:29:52;;;;;;;;;;;;;;;23.97;33.31;99481.16;5094485;28;19916;-35
2023/03/21 10:32:17;;;;;;;;;;;;;;;23.45;33.26;99474.91;5093664;28;19974;-37
2023/03/21 10:34:45;;;;;;;;;;;;;;;24.15;33.07;99463.16;5093886;28;19912;-36
2023/03/21 10:37:11;;;;;;;;;;;;;;;23.66;33.29;99456.38;5093864;28;19950;-36
2023/03/21 10:39:38;;;;;;;;;;;;;;;23.72;33.27;99455.22;5093729;28;19955;-36
2023/03/21 10:42:04;;;;;;;;;;;;;;;23.45;33.39;99465.97;5093455;28;19912;-36
2023/03/21 10:44:31;;;;;;;;;;;;;;;23.69;33.56;99460.44;5094285;28;20293;-36
2023/03/21 10:46:57;;;;;;;;;;;;;;;24.15;32.48;99452.28;5094266;28;20002;-36
2023/03/21 10:49:24;;;;;;;;;;;;;;;24.07;32.58;99436.69;5094136;28;20346;-35
2023/03/21 10:51:51;;;;;;;;;;;;;;;24.54;32.10;99440.16;5092337;28;20389;-38
2023/03/21 10:54:18;;;;;;;;;;;;;;;24.82;31.64;99428.41;5093616;28;20049;-36
2023/03/21 10:57:10;;;;;;;;;;;;;;;25.02;31.33;99427.97;5093632;28;20001;-36
2023/03/21 10:59:42;;;;;;;;;;;;;;;24.96;31.24;99423.75;5084872;28;19984;-37
2023/03/21 11:02:15;;;;;;;;;;;;;;;25.22;31.21;99420.44;5093095;28;19912;-37
2023/03/21 11:04:42;;;;;;;;;;;;;;;25.09;31.28;99416.63;5093183;28;20011;-36
2023/03/21 11:07:13;;;;;;;;;;;;;;;25.07;31.29;99425.09;5093609;28;19943;-38
2023/03/21 11:09:48;;;;;;;;;;;;;;;25.04;31.62;99414.06;5093272;28;20030;-37
2023/03/21 11:12:26;;;;;;;;;;;;;;;24.73;31.75;99403.84;5092980;28;19981;-41
2023/03/21 11:14:52;;;;;;;;;;;;;;;24.20;32.36;99397.84;5092949;28;19947;-41
2023/03/21 11:17:20;;;;;;;;;;;;;;;23.51;33.62;99395.00;5093179;28;19912;-43
2023/03/21 11:19:48;;;;;;;;;;;;;;;22.62;34.99;99385.75;5092992;28;19912;-42
2023/03/21 11:22:14;;;;;;;;;;;;;;;22.19;35.71;99377.56;5092711;28;20066;-41
2023/03/21 11:24:40;;;;;;;;;;;;;;;22.05;36.54;99376.66;5092485;28;19967;-41
2023/03/21 11:27:07;;;;;;;;;;;;;;;22.05;36.46;99368.53;5092949;28;19916;-42
2023/03/21 11:29:34;;;;;;;;;;;;;;;22.50;35.79;99371.00;5092790;28;19962;-42
2023/03/21 11:32:07;;;;;;;;;;;;;;;22.95;35.46;99372.25;5092908;28;20353;-42
2023/03/21 11:34:39;;;;;;;;;;;;;;;23.17;35.10;99373.56;5092372;28;19919;-40
2023/03/21 11:37:05;;;;;;;;;;;;;;;23.81;34.25;99369.22;5092679;28;19977;-41
2023/03/21 11:39:38;;;;;;;;;;;;;;;24.15;33.82;99359.06;5092514;28;19966;-41
2023/03/21 11:42:05;;;;;;;;;;;;;;;24.42;33.25;99360.16;5092640;28;19965;-42
2023/03/21 11:44:40;;;;;;;;;;;;;;;24.46;33.46;99359.22;5092117;28;19969;-41
2023/03/21 11:47:07;;;;;;;;;;;;;;;22.67;35.76;99359.66;5092196;28;19912;-43
2023/03/21 11:49:33;;;;;;;;;;;;;;;22.19;36.94;99347.75;5091914;28;19912;-41
2023/03/21 11:52:12;;;;;;;;;;;;;;;22.25;36.90;99343.13;5091338;28;20040;-41
2023/03/21 11:54:55;;;;;;;;;;;;;;;22.42;37.27;99338.00;5093072;28;19912;-41
2023/03/21 11:57:29;;;;;;;;;;;;;;;22.90;36.32;99341.69;5093022;28;19912;-41
2023/03/21 12:00:24;;;;;;;;;;;;;;;23.20;35.96;99338.50;5092283;28;20339;-37
2023/03/21 12:03:08;;;;;;;;;;;;;;;23.14;35.85;99338.91;5086716;28;20284;-35
2023/03/21 12:05:35;;;;;;;;;;;;;;;23.70;35.08;99340.59;5089204;28;20368;-36
2023/03/21 12:08:16;;;;;;;;;;;;;;;23.81;34.79;99333.91;5092078;28;19923;-36
2023/03/21 12:10:44;;;;;;;;;;;;;;;22.25;37.47;99333.06;5090377;28;19912;-37
2023/03/21 12:13:09;;;;;;;;;;;;;;;22.30;37.52;99324.09;5091937;28;20002;-37
2023/03/21 12:15:39;;;;;;;;;;;;;;;22.08;38.00;99323.81;5092115;28;19943;-35
2023/03/21 12:18:07;;;;;;;;;;;;;;;22.54;37.35;99321.34;5091766;28;19912;-36
2023/03/21 12:20:40;;;;;;;;;;;;;;;22.71;37.06;99315.38;5090599;28;19912;-36
2023/03/21 12:23:21;;;;;;;;;;;;;;;22.37;37.60;99318.28;5091198;28;19916;-35
2023/03/21 12:25:53;;;;;;;;;;;;;;;22.17;38.38;99317.44;5089368;28;19928;-36
2023/03/21 12:28:35;;;;;;;;;;;;;;;21.76;38.86;99304.41;5091417;28;20030;-36
2023/03/21 12:31:00;;;;;;;;;;;;;;;21.57;39.75;99300.81;5091098;28;19916;-36
2023/03/21 12:33:38;;;;;;;;;;;;;;;21.31;39.78;99306.44;5090739;28;20411;-35
2023/03/21 12:36:09;;;;;;;;;;;;;;;21.18;40.19;99296.28;5091014;28;19912;-38
2023/03/21 12:38:55;;;;;;;;;;;;;;;21.11;40.78;99288.50;5091819;28;20296;-37
2023/03/21 12:41:22;;;;;;;;;;;;;;;21.00;41.04;99281.56;5090723;28;19916;-36
2023/03/21 12:44:00;;;;;;;;;;;;;;;20.75;41.82;99280.66;5091474;28;20277;-38
2023/03/21 12:46:28;;;;;;;;;;;;;;;20.37;42.39;99276.84;5091487;28;20014;-36
2023/03/21 12:49:12;;;;;;;;;;;;;;;19.92;43.87;99280.31;5091479;28;20371;-36
2023/03/21 12:51:40;;;;;;;;;;;;;;;20.66;42.21;99274.28;5091164;28;20299;-36
2023/03/21 12:54:08;;;;;;;;;;;;;;;20.94;42.04;99280.00;5091376;28;19912;-36
2023/03/21 12:56:38;;;;;;;;;;;;;;;20.55;42.97;99278.91;5091469;28;19947;-37